Shikarpur Weather



Shikarpur's Current Weather

Temprature 16o haze

haze

Rain: 0 %

Min Temprature16o
Max Temprature16o
Humidity63
Wind Speed3.1 m/h
Sun Rise07:15:08
Sun Set18:00:39
Current Time: 27-Jan-2020 18:26:08
Lat/Lon: 27.96, 68.64




Shikarpur's Geo Location



Shikarpur's Weather Forecast

Time Overall Temp Min Temp Max Temp Humidity Wind Speed Rain
27-Jan-2020 (Mon)
20:00:00 few clouds 15.110 15.110 15.930 61 3.13 m/h 0 %
23:00:00 clear sky 14.420 14.420 15.040 60 3.53 m/h 0 %
28-Jan-2020 (Tue)
02:00:00 clear sky 13.260 13.260 13.670 62 2.14 m/h 0 %
05:00:00 clear sky 12.170 12.170 12.380 68 2 m/h 0 %
08:00:00 clear sky 12.540 12.540 12.540 67 1.68 m/h 0 %
11:00:00 clear sky 19.050 19.050 19.050 38 1.82 m/h 0 %
14:00:00 clear sky 21.380 21.380 21.380 31 2.56 m/h 0 %
17:00:00 few clouds 21.140 21.140 21.140 30 1.93 m/h 0 %
20:00:00 scattered clouds 16.430 16.430 16.430 45 2.52 m/h 0 %
23:00:00 few clouds 14.220 14.220 14.220 56 0.64 m/h 0 %
29-Jan-2020 (Wed)
02:00:00 clear sky 13.670 13.670 13.670 58 0.8 m/h 0 %
05:00:00 clear sky 12.810 12.810 12.810 59 1.24 m/h 0 %
08:00:00 clear sky 13.290 13.290 13.290 48 1.36 m/h 0 %
11:00:00 clear sky 19.890 19.890 19.890 25 2.35 m/h 0 %
14:00:00 clear sky 22.480 22.480 22.480 23 1.84 m/h 0 %
17:00:00 clear sky 22.060 22.060 22.060 22 1.44 m/h 0 %
20:00:00 clear sky 15.920 15.920 15.920 34 3.69 m/h 0 %
23:00:00 clear sky 14.300 14.300 14.300 36 2 m/h 0 %
30-Jan-2020 (Thu)
02:00:00 clear sky 13.640 13.640 13.640 37 1.92 m/h 0 %
05:00:00 few clouds 12.900 12.900 12.900 37 1.02 m/h 0 %
08:00:00 scattered clouds 12.670 12.670 12.670 42 2.59 m/h 0 %
11:00:00 scattered clouds 19.690 19.690 19.690 30 3.12 m/h 0 %
14:00:00 clear sky 22.930 22.930 22.930 20 2.24 m/h 0 %
17:00:00 clear sky 22.730 22.730 22.730 20 1.45 m/h 0 %
20:00:00 clear sky 16.350 16.350 16.350 29 0.15 m/h 0 %
23:00:00 clear sky 14.730 14.730 14.730 35 2.24 m/h 0 %
31-Jan-2020 (Fri)
02:00:00 clear sky 13.090 13.090 13.090 42 1.26 m/h 0 %
05:00:00 clear sky 12.210 12.210 12.210 44 1.51 m/h 0 %
08:00:00 clear sky 12.360 12.360 12.360 43 2.06 m/h 0 %
11:00:00 clear sky 19.900 19.900 19.900 26 1.81 m/h 0 %
14:00:00 clear sky 23.380 23.380 23.380 19 3.38 m/h 0 %
17:00:00 clear sky 22.430 22.430 22.430 21 3.97 m/h 0 %
20:00:00 clear sky 16.280 16.280 16.280 32 3.06 m/h 0 %
23:00:00 clear sky 15.080 15.080 15.080 32 2.04 m/h 0 %
01-Feb-2020 (Sat)
02:00:00 clear sky 13.960 13.960 13.960 33 2.96 m/h 0 %
05:00:00 clear sky 12.680 12.680 12.680 35 2.21 m/h 0 %
08:00:00 clear sky 13.000 13.000 13.000 30 1.38 m/h 0 %
11:00:00 clear sky 21.070 21.070 21.070 15 3.1 m/h 0 %
14:00:00 clear sky 23.520 23.520 23.520 14 2.4 m/h 0 %
17:00:00 clear sky 22.950 22.950 22.950 15 2.89 m/h 0 %

Famous Cities (61)